createdAt,value
2022-12-15T00:00:23.769Z,91993.75
2022-12-15T00:02:13.689Z,91969.66
2022-12-15T00:04:13.842Z,91980.78
2022-12-15T00:06:04.043Z,91981.59
2022-12-15T00:07:53.964Z,91985.03
2022-12-15T00:09:43.974Z,91982.09
2022-12-15T00:11:34.104Z,91964.53
2022-12-15T00:13:30.682Z,91965.13
2022-12-15T00:15:21.172Z,91984.06
2022-12-15T00:17:11.557Z,91966.69
2022-12-15T00:19:01.685Z,91982.38
2022-12-15T00:20:52.114Z,91981.41
2022-12-15T00:22:42.157Z,91987.34
2022-12-15T00:24:32.162Z,91987.09
2022-12-15T00:26:22.626Z,92008.00
2022-12-15T00:28:15.271Z,92000.53
2022-12-15T00:30:05.583Z,91991.69
2022-12-15T00:31:56.300Z,92000.66
2022-12-15T00:33:46.304Z,92017.91
2022-12-15T00:35:36.511Z,92028.56
2022-12-15T00:37:27.180Z,92036.47
2022-12-15T00:39:03.495Z,92038.44
2022-12-15T00:40:35.521Z,92036.97
2022-12-15T00:42:07.690Z,92034.50
2022-12-15T00:43:40.140Z,92043.22
2022-12-15T00:45:11.621Z,92060.97
2022-12-15T00:46:55.369Z,92064.34
2022-12-15T00:48:27.158Z,92064.72
2022-12-15T00:50:18.594Z,92071.53
2022-12-15T00:52:10.513Z,92070.06
2022-12-15T00:54:01.662Z,92067.88
2022-12-15T00:55:53.705Z,92066.97
2022-12-15T00:57:45.476Z,92074.41
2022-12-15T00:59:37.362Z,92068.78
2022-12-15T01:01:41.315Z,92064.31
2022-12-15T01:03:41.228Z,92093.94
2022-12-15T01:05:54.344Z,92086.94
2022-12-15T01:07:49.445Z,92076.38
2022-12-15T01:09:49.277Z,92081.81
2022-12-15T01:11:43.927Z,92091.69
2022-12-15T01:13:34.641Z,92103.34
2022-12-15T01:15:25.199Z,92103.13
2022-12-15T01:17:15.214Z,92088.59
2022-12-15T01:19:07.688Z,92093.16
2022-12-15T01:20:45.084Z,92105.69
2022-12-15T01:22:16.850Z,92106.69
2022-12-15T01:23:49.488Z,92115.06
2022-12-15T01:25:22.478Z,92112.03
2022-12-15T01:26:54.162Z,92108.16
2022-12-15T01:28:25.930Z,92107.75
2022-12-15T01:29:57.550Z,92105.47
2022-12-15T01:31:29.286Z,92106.75
2022-12-15T01:33:00.981Z,92103.00
2022-12-15T01:34:32.693Z,92100.81
2022-12-15T01:36:04.356Z,92112.97
2022-12-15T01:37:36.311Z,92114.03
2022-12-15T01:39:08.165Z,92112.66
2022-12-15T01:40:45.861Z,92113.44
2022-12-15T01:42:17.444Z,92115.53
2022-12-15T01:43:49.829Z,92099.81
2022-12-15T01:45:24.493Z,92110.97
2022-12-15T01:46:56.633Z,92105.25
2022-12-15T01:48:31.229Z,92100.63
2022-12-15T01:50:02.829Z,92116.84
2022-12-15T01:51:40.602Z,92097.66
2022-12-15T01:53:12.235Z,92087.00
2022-12-15T01:54:48.988Z,92098.16
2022-12-15T01:56:20.814Z,92106.75
2022-12-15T01:57:52.632Z,92101.22
2022-12-15T01:59:25.374Z,92106.34
2022-12-15T02:00:57.203Z,92114.19
2022-12-15T02:02:29.504Z,92125.81
2022-12-15T02:04:01.293Z,92123.34
2022-12-15T02:05:33.515Z,92115.84
2022-12-15T02:07:05.088Z,92114.63
2022-12-15T02:08:36.735Z,92107.53
2022-12-15T02:10:10.362Z,92106.00
2022-12-15T02:11:46.101Z,92102.91
2022-12-15T02:13:30.252Z,92106.59
2022-12-15T02:15:17.961Z,92102.53
2022-12-15T02:16:52.319Z,92099.06
2022-12-15T02:18:35.477Z,92109.34
2022-12-15T02:20:16.101Z,92101.84
2022-12-15T02:21:56.962Z,92104.78
2022-12-15T02:23:40.859Z,92098.00
2022-12-15T02:25:44.989Z,92110.84
2022-12-15T02:27:34.650Z,92090.53
2022-12-15T02:29:13.313Z,92095.66
2022-12-15T02:31:33.297Z,92094.69
2022-12-15T02:33:09.134Z,92083.13
2022-12-15T02:34:53.117Z,92083.25
2022-12-15T02:36:26.458Z,92075.06
2022-12-15T02:37:57.996Z,92076.94
2022-12-15T02:39:29.682Z,92072.69
2022-12-15T02:41:02.663Z,92077.72
2022-12-15T02:42:34.550Z,92070.31
2022-12-15T02:44:26.329Z,92073.75
2022-12-15T02:46:01.938Z,92081.59
2022-12-15T02:47:39.928Z,92092.84
2022-12-15T02:49:17.767Z,92094.44
2022-12-15T02:50:51.730Z,92106.97
2022-12-15T02:52:26.238Z,92103.91
2022-12-15T02:54:00.954Z,92107.97
2022-12-15T02:55:38.251Z,92119.03
2022-12-15T02:57:36.133Z,92100.94
2022-12-15T02:59:11.305Z,92089.69
2022-12-15T03:00:44.515Z,92076.34
2022-12-15T03:02:16.245Z,92063.00
2022-12-15T03:03:47.886Z,92089.00
2022-12-15T03:05:19.688Z,92089.00
2022-12-15T03:07:00.537Z,92086.22
2022-12-15T03:08:32.518Z,92087.03
2022-12-15T03:10:04.824Z,92087.81
2022-12-15T03:11:36.399Z,92102.94
2022-12-15T03:13:08.002Z,92122.56
2022-12-15T03:14:39.989Z,92117.66
2022-12-15T03:16:11.641Z,92111.69
2022-12-15T03:17:43.272Z,92107.94
2022-12-15T03:19:15.015Z,92103.09
2022-12-15T03:20:46.708Z,92095.59
2022-12-15T03:22:18.336Z,92110.72
2022-12-15T03:23:49.900Z,92091.25
2022-12-15T03:25:21.739Z,92079.28
2022-12-15T03:26:53.819Z,92075.41
2022-12-15T03:28:25.587Z,92069.16
2022-12-15T03:29:57.832Z,92066.38
2022-12-15T03:31:29.516Z,92064.81
2022-12-15T03:33:01.182Z,92066.88
2022-12-15T03:34:32.773Z,92077.84
2022-12-15T03:36:04.620Z,92076.75
2022-12-15T03:37:36.101Z,92079.41
2022-12-15T03:39:07.635Z,92071.25
2022-12-15T03:40:39.483Z,92075.09
2022-12-15T03:42:11.233Z,92075.31
2022-12-15T03:43:42.929Z,92075.97
2022-12-15T03:45:16.737Z,92075.28
2022-12-15T03:46:48.415Z,92078.09
2022-12-15T03:48:19.964Z,92076.84
2022-12-15T03:49:51.463Z,92075.66
2022-12-15T03:51:22.977Z,92090.28
2022-12-15T03:52:55.509Z,92093.47
2022-12-15T03:54:27.003Z,92105.41
2022-12-15T03:55:58.564Z,92105.09
2022-12-15T03:57:30.236Z,92119.94
2022-12-15T03:59:01.738Z,92124.38
2022-12-15T04:00:33.299Z,92133.34
2022-12-15T04:02:04.954Z,92136.72
2022-12-15T04:03:36.664Z,92126.81
2022-12-15T04:05:08.403Z,92125.22
2022-12-15T04:06:39.975Z,92129.16
2022-12-15T04:08:12.948Z,92126.03
2022-12-15T04:09:44.524Z,92126.31
2022-12-15T04:11:16.145Z,92130.44
2022-12-15T04:12:47.837Z,92130.16
2022-12-15T04:14:19.367Z,92137.06
2022-12-15T04:15:51.056Z,92141.56
2022-12-15T04:17:22.707Z,92142.16
2022-12-15T04:19:14.227Z,92138.81
2022-12-15T04:20:45.930Z,92140.88
2022-12-15T04:22:21.929Z,92145.00
2022-12-15T04:24:12.292Z,92148.34
2022-12-15T04:26:02.425Z,92142.72
2022-12-15T04:27:57.079Z,92147.75
2022-12-15T04:29:49.831Z,92141.91
2022-12-15T04:31:46.764Z,92151.50
2022-12-15T04:33:37.457Z,92160.03
2022-12-15T04:35:28.047Z,92172.16
2022-12-15T04:37:18.523Z,92174.22
2022-12-15T04:39:08.879Z,92181.34
2022-12-15T04:40:59.171Z,92182.50
2022-12-15T04:42:49.409Z,92199.59
2022-12-15T04:44:39.950Z,92190.06
2022-12-15T04:46:30.109Z,92204.75
2022-12-15T04:48:20.229Z,92202.97
2022-12-15T04:50:10.175Z,92205.22
2022-12-15T04:52:03.384Z,92192.03
2022-12-15T04:53:53.691Z,92192.50
2022-12-15T04:55:43.767Z,92202.41
2022-12-15T04:57:33.746Z,92207.47
2022-12-15T04:59:23.850Z,92206.50
2022-12-15T05:01:15.340Z,92210.75
2022-12-15T05:03:05.560Z,92219.88
2022-12-15T05:04:55.726Z,92220.78
2022-12-15T05:06:48.308Z,92227.72
2022-12-15T05:08:39.738Z,92229.00
2022-12-15T05:10:29.946Z,92230.88
2022-12-15T05:12:20.267Z,92229.47
2022-12-15T05:14:10.506Z,92238.88
2022-12-15T05:16:00.937Z,92240.78
2022-12-15T05:17:51.006Z,92251.34
2022-12-15T05:19:41.303Z,92247.47
2022-12-15T05:21:31.461Z,92246.66
2022-12-15T05:23:21.352Z,92243.31
2022-12-15T05:25:11.216Z,92250.38
2022-12-15T05:27:01.253Z,92247.22
2022-12-15T05:28:51.675Z,92243.84
2022-12-15T05:30:41.528Z,92232.28
2022-12-15T05:32:13.418Z,92234.88
2022-12-15T05:33:45.016Z,92242.22
2022-12-15T05:35:16.555Z,92239.09
2022-12-15T05:36:48.176Z,92242.34
2022-12-15T05:38:19.661Z,92245.31
2022-12-15T05:39:51.239Z,92257.09
2022-12-15T05:41:23.472Z,92258.47
2022-12-15T05:42:57.729Z,92255.81
2022-12-15T05:44:29.484Z,92264.91
2022-12-15T05:46:07.114Z,92261.16
2022-12-15T05:47:38.801Z,92266.81
2022-12-15T05:49:11.603Z,92271.84
2022-12-15T05:50:43.115Z,92269.97
2022-12-15T05:52:14.965Z,92277.38
2022-12-15T05:53:46.536Z,92273.03
2022-12-15T05:55:18.748Z,92280.31
2022-12-15T05:56:50.685Z,92284.59
2022-12-15T05:58:22.467Z,92294.97
2022-12-15T05:59:54.021Z,92301.13
2022-12-15T06:01:26.275Z,92307.56
2022-12-15T06:02:58.210Z,92311.97
2022-12-15T06:04:29.929Z,92308.94
2022-12-15T06:06:01.715Z,92310.88
2022-12-15T06:07:34.093Z,92314.06
2022-12-15T06:09:05.634Z,92309.31
2022-12-15T06:10:37.405Z,92317.81
2022-12-15T06:12:08.964Z,92329.31
2022-12-15T06:13:40.682Z,92332.56
2022-12-15T06:15:12.343Z,92334.16
2022-12-15T06:16:50.829Z,92331.50
2022-12-15T06:18:22.914Z,92342.97
2022-12-15T06:19:54.617Z,92341.88
2022-12-15T06:21:27.417Z,92336.84
2022-12-15T06:22:59.130Z,92338.72
2022-12-15T06:24:30.654Z,92342.69
2022-12-15T06:26:15.714Z,92346.63
2022-12-15T06:27:47.315Z,92354.03
2022-12-15T06:29:19.090Z,92350.28
2022-12-15T06:30:52.433Z,92341.66
2022-12-15T06:32:24.059Z,92353.44
2022-12-15T06:34:01.403Z,92346.50
2022-12-15T06:35:39.918Z,92351.38
2022-12-15T06:37:11.579Z,92347.59
2022-12-15T06:38:43.845Z,92350.59
2022-12-15T06:40:15.405Z,92348.53
2022-12-15T06:41:46.971Z,92338.63
2022-12-15T06:43:18.596Z,92343.19
2022-12-15T06:44:50.470Z,92349.31
2022-12-15T06:46:22.195Z,92349.81
2022-12-15T06:47:59.522Z,92353.28
2022-12-15T06:49:32.849Z,92358.00
2022-12-15T06:51:05.147Z,92364.53
2022-12-15T06:52:36.754Z,92375.81
2022-12-15T06:54:09.163Z,92369.34
2022-12-15T06:55:41.015Z,92359.56
2022-12-15T06:57:12.577Z,92372.72
2022-12-15T06:58:44.175Z,92381.75
2022-12-15T07:00:16.055Z,92380.72
2022-12-15T07:01:47.805Z,92370.22
2022-12-15T07:03:19.706Z,92382.31
2022-12-15T07:04:51.612Z,92378.53
2022-12-15T07:06:23.284Z,92382.66
2022-12-15T07:07:54.781Z,92389.00
2022-12-15T07:09:26.526Z,92387.63
2022-12-15T07:10:58.166Z,92391.69
2022-12-15T07:12:29.716Z,92395.16
2022-12-15T07:14:01.221Z,92395.44
2022-12-15T07:15:32.766Z,92399.63
2022-12-15T07:17:04.264Z,92402.28
2022-12-15T07:18:35.898Z,92405.63
2022-12-15T07:20:07.776Z,92397.00
2022-12-15T07:21:39.398Z,92397.66
2022-12-15T07:23:10.947Z,92397.41
2022-12-15T07:24:42.542Z,92410.81
2022-12-15T07:26:14.104Z,92406.06
2022-12-15T07:27:45.919Z,92411.28
2022-12-15T07:29:23.016Z,92418.13
2022-12-15T07:30:55.111Z,92421.59
2022-12-15T07:32:26.679Z,92423.28
2022-12-15T07:33:58.708Z,92419.63
2022-12-15T07:35:30.563Z,92410.19
2022-12-15T07:37:02.088Z,92418.72
2022-12-15T07:38:33.686Z,92428.34
2022-12-15T07:40:05.493Z,92437.31
2022-12-15T07:41:37.924Z,92421.34
2022-12-15T07:43:09.475Z,92422.94
2022-12-15T07:44:41.163Z,92443.72
2022-12-15T07:46:12.764Z,92437.47
2022-12-15T07:47:44.338Z,92432.22
2022-12-15T07:49:17.074Z,92444.03
2022-12-15T07:50:48.742Z,92427.25
2022-12-15T07:52:22.052Z,92435.28
2022-12-15T07:53:53.555Z,92439.72
2022-12-15T07:55:43.629Z,92439.72
2022-12-15T07:57:17.289Z,92443.81
2022-12-15T07:58:48.970Z,92447.09
2022-12-15T08:00:20.859Z,92443.72
2022-12-15T08:01:53.898Z,92448.28
2022-12-15T08:03:26.039Z,92449.09
2022-12-15T08:04:57.682Z,92453.97
2022-12-15T08:06:29.269Z,92462.59
2022-12-15T08:08:00.845Z,92448.91
2022-12-15T08:09:32.504Z,92455.72
2022-12-15T08:11:07.300Z,92460.00
2022-12-15T08:12:39.072Z,92463.66
2022-12-15T08:14:17.018Z,92462.56
2022-12-15T08:15:52.884Z,92460.69
2022-12-15T08:17:24.392Z,92467.78
2022-12-15T08:18:57.343Z,92471.94
2022-12-15T08:20:30.603Z,92478.13
2022-12-15T08:22:02.264Z,92480.38
2022-12-15T08:23:34.406Z,92485.63
2022-12-15T08:25:06.242Z,92478.78
2022-12-15T08:26:40.636Z,92474.22
2022-12-15T08:28:12.267Z,92476.09
2022-12-15T08:29:52.098Z,92477.69
2022-12-15T08:31:24.101Z,92485.00
2022-12-15T08:32:55.703Z,92492.31
2022-12-15T08:34:27.284Z,92486.16
2022-12-15T08:36:03.311Z,92488.66
2022-12-15T08:37:35.100Z,92493.22
2022-12-15T08:39:06.664Z,92487.25
2022-12-15T08:40:38.231Z,92491.25
2022-12-15T08:42:09.834Z,92487.47
2022-12-15T08:43:48.258Z,92494.59
2022-12-15T08:45:20.690Z,92502.31
2022-12-15T08:46:52.190Z,92490.50
2022-12-15T08:48:23.781Z,92499.03
2022-12-15T08:49:55.852Z,92497.50
2022-12-15T08:51:28.388Z,92490.63
2022-12-15T08:53:28.879Z,92499.47
2022-12-15T08:54:51.502Z,92503.75
2022-12-15T08:56:23.367Z,92500.44
2022-12-15T08:57:54.922Z,92486.91
2022-12-15T08:59:26.625Z,92490.53
2022-12-15T09:01:01.848Z,92499.69
2022-12-15T09:02:33.575Z,92489.28
2022-12-15T09:04:05.266Z,92500.34
2022-12-15T09:05:37.297Z,92501.66
2022-12-15T09:07:09.040Z,92493.47
2022-12-15T09:08:40.559Z,92498.66
2022-12-15T09:10:12.126Z,92487.91
2022-12-15T09:11:46.753Z,92495.78
2022-12-15T09:13:18.322Z,92503.03
2022-12-15T09:14:49.922Z,92502.63
2022-12-15T09:16:21.601Z,92502.03
2022-12-15T09:17:53.219Z,92510.28
2022-12-15T09:19:25.400Z,92506.50
2022-12-15T09:21:00.596Z,92506.81
2022-12-15T09:22:32.339Z,92502.56
2022-12-15T09:24:04.118Z,92503.03
2022-12-15T09:25:35.669Z,92500.84
2022-12-15T09:27:07.805Z,92507.00
2022-12-15T09:28:39.401Z,92508.13
2022-12-15T09:30:11.151Z,92514.75
2022-12-15T09:31:44.841Z,92522.34
2022-12-15T09:33:16.330Z,92520.13
2022-12-15T09:34:47.861Z,92515.25
2022-12-15T09:36:22.433Z,92509.22
2022-12-15T09:37:54.414Z,92514.28
2022-12-15T09:39:26.045Z,92507.00
2022-12-15T09:40:57.648Z,92507.78
2022-12-15T09:42:29.593Z,92519.03
2022-12-15T09:44:01.296Z,92519.16
2022-12-15T09:45:34.736Z,92511.59
2022-12-15T09:47:16.028Z,92505.88
2022-12-15T09:48:47.925Z,92507.75
2022-12-15T09:50:19.913Z,92522.13
2022-12-15T09:51:57.808Z,92512.97
2022-12-15T09:53:54.069Z,92508.88
2022-12-15T09:55:24.824Z,92504.16
2022-12-15T09:56:57.035Z,92506.38
2022-12-15T09:58:33.614Z,92501.00
2022-12-15T10:00:07.589Z,92503.84
2022-12-15T10:01:43.751Z,92503.66
2022-12-15T10:03:24.195Z,92502.41
2022-12-15T10:04:58.011Z,92512.50
2022-12-15T10:06:33.054Z,92503.53
2022-12-15T10:08:05.066Z,92502.56
2022-12-15T10:12:26.806Z,92500.38
2022-12-15T10:16:52.953Z,92507.19
2022-12-15T10:18:30.940Z,92506.56
2022-12-15T10:20:22.321Z,92515.44
2022-12-15T10:21:53.946Z,92516.53
2022-12-15T10:23:25.585Z,92512.25
2022-12-15T10:25:09.808Z,92514.31
2022-12-15T10:26:42.307Z,92520.31
2022-12-15T10:28:17.065Z,92517.94
2022-12-15T10:30:01.136Z,92510.69
2022-12-15T10:31:35.587Z,92514.47
2022-12-15T10:33:25.582Z,92509.41
2022-12-15T10:34:57.348Z,92515.25
2022-12-15T10:36:29.776Z,92518.72
2022-12-15T10:38:02.710Z,92517.63
2022-12-15T10:39:40.995Z,92512.75
2022-12-15T10:41:16.368Z,92519.38
2022-12-15T10:42:51.018Z,92517.50
2022-12-15T10:44:30.284Z,92515.44
2022-12-15T10:46:09.556Z,92512.13
2022-12-15T10:47:41.194Z,92513.06
2022-12-15T10:49:12.948Z,92514.81
2022-12-15T10:50:44.873Z,92517.00
2022-12-15T10:52:20.291Z,92517.00
2022-12-15T10:53:52.817Z,92509.59
2022-12-15T10:55:37.235Z,92512.91
2022-12-15T10:57:29.285Z,92509.28
2022-12-15T10:59:03.778Z,92511.00
2022-12-15T11:00:35.529Z,92510.41
2022-12-15T11:02:25.785Z,92521.47
2022-12-15T11:03:58.106Z,92511.66
2022-12-15T11:05:29.989Z,92513.22
2022-12-15T11:07:02.263Z,92519.56
2022-12-15T11:08:33.957Z,92523.53
2022-12-15T11:10:13.387Z,92517.34
2022-12-15T11:12:11.854Z,92523.66
2022-12-15T11:14:03.581Z,92515.25
2022-12-15T11:15:37.743Z,92515.09
2022-12-15T11:17:36.947Z,92517.47
2022-12-15T11:19:11.800Z,92516.81
2022-12-15T11:20:48.642Z,92518.22
2022-12-15T11:22:23.165Z,92525.00
2022-12-15T11:24:04.224Z,92526.03
2022-12-15T11:25:39.128Z,92523.59
2022-12-15T11:27:10.847Z,92522.88
2022-12-15T11:28:51.538Z,92519.81
2022-12-15T11:30:43.437Z,92510.81
2022-12-15T11:32:15.644Z,92524.19
2022-12-15T11:33:47.184Z,92523.00
2022-12-15T11:35:22.768Z,92517.00
2022-12-15T11:37:04.232Z,92522.69
2022-12-15T11:38:35.890Z,92521.09
2022-12-15T11:40:16.825Z,92517.13
2022-12-15T11:41:58.042Z,92515.84
2022-12-15T11:43:39.808Z,92524.63
2022-12-15T11:45:14.538Z,92526.31
2022-12-15T11:46:55.472Z,92516.66
2022-12-15T11:48:28.250Z,92518.69
2022-12-15T11:50:03.589Z,92519.41
2022-12-15T11:51:36.375Z,92510.09
2022-12-15T11:53:14.040Z,92520.28
2022-12-15T11:54:53.702Z,92510.88
2022-12-15T11:56:34.154Z,92519.47
2022-12-15T11:58:14.719Z,92526.69
2022-12-15T11:59:46.526Z,92521.44
2022-12-15T12:01:38.199Z,92524.13
2022-12-15T12:03:10.100Z,92525.59
2022-12-15T12:05:02.039Z,92525.59
2022-12-15T12:06:35.370Z,92527.38
2022-12-15T12:08:16.401Z,92526.38
2022-12-15T12:10:06.548Z,92530.00
2022-12-15T12:11:43.036Z,92530.09
2022-12-15T12:13:20.955Z,92529.88
2022-12-15T12:15:11.273Z,92531.47
2022-12-15T12:17:08.505Z,92529.41
2022-12-15T12:18:41.188Z,92527.13
2022-12-15T12:20:18.600Z,92532.22
2022-12-15T12:21:51.379Z,92525.22
2022-12-15T12:23:24.940Z,92537.19
2022-12-15T12:24:56.814Z,92541.03
2022-12-15T12:26:40.877Z,92539.31
2022-12-15T12:28:20.918Z,92538.06
2022-12-15T12:30:06.640Z,92546.91
2022-12-15T12:31:38.511Z,92550.41
2022-12-15T12:33:19.165Z,92546.66
2022-12-15T12:34:51.176Z,92557.59
2022-12-15T12:36:23.050Z,92555.47
2022-12-15T12:38:01.386Z,92560.53
2022-12-15T12:39:35.247Z,92556.00
2022-12-15T12:41:08.089Z,92558.16
2022-12-15T12:42:58.291Z,92556.78
2022-12-15T12:44:35.263Z,92564.53
2022-12-15T12:46:13.254Z,92561.19
2022-12-15T12:47:47.089Z,92565.78
2022-12-15T12:49:30.529Z,92564.09
2022-12-15T12:51:13.007Z,92562.31
2022-12-15T12:52:51.405Z,92549.81
2022-12-15T12:54:38.807Z,92556.34
2022-12-15T12:56:28.799Z,92561.22
2022-12-15T12:58:00.319Z,92559.50
2022-12-15T12:59:36.714Z,92567.72
2022-12-15T13:01:11.480Z,92564.72
2022-12-15T13:02:46.454Z,92563.69
2022-12-15T13:04:30.254Z,92565.78
2022-12-15T13:06:01.805Z,92561.50
2022-12-15T13:07:38.029Z,92563.88
2022-12-15T13:09:18.258Z,92559.34
2022-12-15T13:10:50.765Z,92557.72
2022-12-15T13:12:56.846Z,92559.03
2022-12-15T13:14:40.726Z,92566.47
2022-12-15T13:16:12.374Z,92559.84
2022-12-15T13:17:44.431Z,92561.25
2022-12-15T13:19:17.073Z,92559.50
2022-12-15T13:20:50.755Z,92557.41
2022-12-15T13:22:42.792Z,92565.63
2022-12-15T13:24:26.706Z,92567.47
2022-12-15T13:27:53.267Z,92559.06
2022-12-15T13:29:24.869Z,92557.50
2022-12-15T13:31:15.052Z,92562.56
2022-12-15T13:32:47.188Z,92562.75
2022-12-15T13:34:20.446Z,92563.34
2022-12-15T13:35:52.373Z,92569.41
2022-12-15T13:37:43.175Z,92567.81
2022-12-15T13:39:17.327Z,92571.56
2022-12-15T13:40:52.059Z,92576.03
2022-12-15T13:44:20.900Z,92581.88
2022-12-15T13:45:54.187Z,92575.31
2022-12-15T13:47:26.704Z,92573.31
2022-12-15T13:49:27.644Z,92573.13
2022-12-15T13:51:03.742Z,92579.41
2022-12-15T13:53:17.434Z,92584.28
2022-12-15T13:54:36.155Z,92594.81
2022-12-15T13:56:11.489Z,92593.13
2022-12-15T13:57:50.181Z,92600.63
2022-12-15T13:59:34.619Z,92601.19
2022-12-15T14:01:16.391Z,92607.19
2022-12-15T14:02:48.013Z,92607.53
2022-12-15T14:04:19.943Z,92609.59
2022-12-15T14:05:58.884Z,92602.63
2022-12-15T14:07:30.744Z,92602.91
2022-12-15T14:09:02.499Z,92604.38
2022-12-15T14:10:36.830Z,92612.94
2022-12-15T14:12:08.808Z,92606.38
2022-12-15T14:13:41.031Z,92610.09
2022-12-15T14:15:13.950Z,92611.13
2022-12-15T14:16:45.650Z,92611.66
2022-12-15T14:18:23.334Z,92615.47
2022-12-15T14:19:55.043Z,92621.13
2022-12-15T14:21:27.132Z,92623.03
2022-12-15T14:22:59.036Z,92622.03
2022-12-15T14:24:40.510Z,92624.13
2022-12-15T14:26:13.429Z,92628.38
2022-12-15T14:27:45.089Z,92628.81
2022-12-15T14:29:22.404Z,92632.28
2022-12-15T14:30:55.874Z,92633.16
2022-12-15T14:32:27.611Z,92639.28
2022-12-15T14:34:23.083Z,92646.31
2022-12-15T14:35:55.613Z,92634.78
2022-12-15T14:37:27.433Z,92638.34
2022-12-15T14:39:05.988Z,92644.16
2022-12-15T14:40:38.032Z,92641.97
2022-12-15T14:42:16.646Z,92648.22
2022-12-15T14:44:31.536Z,92659.53
2022-12-15T14:45:41.811Z,92652.56
2022-12-15T14:47:17.319Z,92651.63
2022-12-15T14:48:57.318Z,92651.03
2022-12-15T14:50:29.402Z,92658.50
2022-12-15T14:52:01.767Z,92661.75
2022-12-15T14:53:36.600Z,92657.00
2022-12-15T14:55:26.359Z,92662.22
2022-12-15T14:57:01.197Z,92661.97
2022-12-15T14:58:35.695Z,92652.47
2022-12-15T15:00:26.343Z,92665.81
2022-12-15T15:02:30.681Z,92666.50
2022-12-15T15:03:11.248Z,92565.72
2022-12-15T15:03:13.202Z,92574.38
2022-12-15T15:04:06.157Z,92670.03
2022-12-15T15:05:37.837Z,92670.50
2022-12-15T15:07:16.742Z,92662.75
2022-12-15T15:08:49.435Z,92682.72
2022-12-15T15:10:24.741Z,92684.97
2022-12-15T15:12:02.083Z,92685.59
2022-12-15T15:13:39.976Z,92678.94
2022-12-15T15:15:14.945Z,92673.69
2022-12-15T15:16:47.154Z,92687.19
2022-12-15T15:18:18.850Z,92684.22
2022-12-15T15:19:50.509Z,92690.41
2022-12-15T15:21:23.205Z,92690.56
2022-12-15T15:23:02.724Z,92694.06
2022-12-15T15:24:35.638Z,92694.84
2022-12-15T15:26:07.933Z,92697.53
2022-12-15T15:27:40.070Z,92699.91
2022-12-15T15:29:49.953Z,92697.69
2022-12-15T15:31:28.645Z,92697.38
2022-12-15T15:33:02.231Z,92699.78
2022-12-15T15:34:34.947Z,92701.22
2022-12-15T15:36:06.924Z,92700.44
2022-12-15T15:37:38.523Z,92702.00
2022-12-15T15:39:11.018Z,92696.78
2022-12-15T15:40:42.603Z,92697.88
2022-12-15T15:42:15.070Z,92707.84
2022-12-15T15:43:46.893Z,92703.91
2022-12-15T15:45:18.670Z,92714.81
2022-12-15T15:46:51.057Z,92715.44
2022-12-15T15:48:25.810Z,92721.44
2022-12-15T15:49:58.478Z,92715.59
2022-12-15T15:51:30.517Z,92710.69
2022-12-15T15:53:02.701Z,92715.41
2022-12-15T15:54:36.442Z,92712.91
2022-12-15T15:56:10.743Z,92715.41
2022-12-15T15:57:42.357Z,92711.28
2022-12-15T15:59:15.146Z,92714.28
2022-12-15T16:00:46.976Z,92716.97
2022-12-15T16:02:18.805Z,92720.78
2022-12-15T16:03:50.750Z,92717.47
2022-12-15T16:05:22.481Z,92720.59
2022-12-15T16:06:54.144Z,92729.34
2022-12-15T16:08:27.830Z,92732.50
2022-12-15T16:09:59.509Z,92736.31
2022-12-15T16:11:32.083Z,92735.03
2022-12-15T16:13:04.183Z,92731.84
2022-12-15T16:14:35.890Z,92737.22
2022-12-15T16:16:09.987Z,92735.97
2022-12-15T16:17:42.279Z,92733.13
2022-12-15T16:19:14.154Z,92743.53
2022-12-15T16:20:46.791Z,92743.19
2022-12-15T16:22:19.690Z,92749.31
2022-12-15T16:23:51.425Z,92747.53
2022-12-15T16:25:50.356Z,92749.28
2022-12-15T16:27:23.148Z,92759.84
2022-12-15T16:28:54.845Z,92763.84
2022-12-15T16:30:28.023Z,92766.97
2022-12-15T16:32:01.675Z,92763.19
2022-12-15T16:33:33.244Z,92766.38
2022-12-15T16:35:05.485Z,92763.84
2022-12-15T16:36:41.217Z,92771.09
2022-12-15T16:38:14.875Z,92770.00
2022-12-15T16:39:46.652Z,92771.59
2022-12-15T16:41:18.722Z,92768.41
2022-12-15T16:42:59.919Z,92775.50
2022-12-15T16:44:32.103Z,92774.53
2022-12-15T16:46:03.979Z,92778.78
2022-12-15T16:47:35.809Z,92774.06
2022-12-15T16:49:07.533Z,92770.41
2022-12-15T16:50:40.156Z,92774.50
2022-12-15T16:52:17.849Z,92772.91
2022-12-15T16:53:49.507Z,92777.47
2022-12-15T16:55:25.355Z,92783.94
2022-12-15T16:56:57.543Z,92778.72
2022-12-15T16:58:32.353Z,92774.44
2022-12-15T17:00:10.599Z,92779.81
2022-12-15T17:01:42.433Z,92786.78
2022-12-15T17:03:18.360Z,92780.31
2022-12-15T17:04:50.656Z,92772.75
2022-12-15T17:06:22.218Z,92769.56
2022-12-15T17:07:55.695Z,92774.94
2022-12-15T17:09:27.768Z,92780.00
2022-12-15T17:10:59.694Z,92772.41
2022-12-15T17:12:33.191Z,92777.47
2022-12-15T17:14:06.737Z,92779.06
2022-12-15T17:15:40.371Z,92778.75
2022-12-15T17:17:15.469Z,92785.13
2022-12-15T17:18:47.562Z,92777.84
2022-12-15T17:20:28.942Z,92789.41
2022-12-15T17:22:01.350Z,92784.03
2022-12-15T17:23:33.380Z,92786.41
2022-12-15T17:25:05.963Z,92788.41
2022-12-15T17:26:37.746Z,92793.00
2022-12-15T17:28:14.318Z,92791.72
2022-12-15T17:29:45.870Z,92793.78
2022-12-15T17:31:18.965Z,92789.41
2022-12-15T17:32:52.540Z,92799.34
2022-12-15T17:34:32.833Z,92799.84
2022-12-15T17:36:06.372Z,92810.09
2022-12-15T17:37:39.810Z,92810.41
2022-12-15T17:39:11.386Z,92802.94
2022-12-15T17:40:43.055Z,92808.31
2022-12-15T17:42:16.689Z,92811.00
2022-12-15T17:44:09.733Z,92811.81
2022-12-15T17:45:47.445Z,92807.22
2022-12-15T17:47:20.009Z,92811.00
2022-12-15T17:48:53.889Z,92810.59
2022-12-15T17:50:32.194Z,92823.56
2022-12-15T17:52:05.415Z,92823.44
2022-12-15T17:53:38.751Z,92805.59
2022-12-15T17:55:21.025Z,92818.72
2022-12-15T17:56:52.679Z,92825.50
2022-12-15T17:58:29.116Z,92827.84
2022-12-15T18:00:02.849Z,92831.28
2022-12-15T18:01:34.613Z,92820.47
2022-12-15T18:03:06.675Z,92827.09
2022-12-15T18:04:39.466Z,92828.50
2022-12-15T18:06:15.884Z,92820.91
2022-12-15T18:07:48.567Z,92824.69
2022-12-15T18:09:22.503Z,92826.91
2022-12-15T18:10:58.709Z,92823.72
2022-12-15T18:12:30.599Z,92818.69
2022-12-15T18:14:02.439Z,92812.19
2022-12-15T18:15:34.425Z,92812.97
2022-12-15T18:17:12.124Z,92811.56
2022-12-15T18:18:44.364Z,92823.91
2022-12-15T18:20:19.282Z,92812.06
2022-12-15T18:21:51.836Z,92819.34
2022-12-15T18:23:32.668Z,92814.75
2022-12-15T18:25:07.198Z,92813.66
2022-12-15T18:26:44.812Z,92821.22
2022-12-15T18:28:22.653Z,92826.91
2022-12-15T18:29:55.237Z,92822.31
2022-12-15T18:31:27.241Z,92827.69
2022-12-15T18:33:00.140Z,92840.03
2022-12-15T18:34:32.784Z,92835.75
2022-12-15T18:36:04.707Z,92833.38
2022-12-15T18:37:37.858Z,92837.94
2022-12-15T18:39:27.517Z,92836.53
2022-12-15T18:41:00.037Z,92844.59
2022-12-15T18:42:32.193Z,92847.66
2022-12-15T18:44:04.227Z,92842.16
2022-12-15T18:45:36.040Z,92837.28
2022-12-15T18:47:15.751Z,92838.56
2022-12-15T18:48:47.502Z,92841.72
2022-12-15T18:50:27.845Z,92831.75
2022-12-15T18:51:59.614Z,92828.28
2022-12-15T18:53:35.836Z,92830.97
2022-12-15T18:55:19.424Z,92828.41
2022-12-15T18:56:57.472Z,92827.44
2022-12-15T18:58:30.518Z,92827.75
2022-12-15T19:00:11.578Z,92823.47
2022-12-15T19:01:44.439Z,92820.16
2022-12-15T19:03:19.162Z,92817.19